Time;durP1;ratioP1;P1;durP2;ratioP2;P2;SDS_P1;SDS_P2;PMS_P1;PMS_P2;Temp;Humidity;BMP_temperature;BMP_pressure;BME280_temperature;BME280_humidity;BME280_pressure;Samples;Min_cycle;Max_cycle;Signal;HPM_P1;HPM_P2
2022/03/19 00:00:37;;;;;;;;;;;23.90;43.70;;;;;;1582215;75;828;-65
2022/03/19 00:02:38;;;;;;;;;;;23.90;43.80;;;;;;1580763;74;1141;-63
2022/03/19 00:04:40;;;;;;;;;;;23.90;43.80;;;;;;1579896;75;779;-63
2022/03/19 00:06:42;;;;;;;;;;;23.90;43.60;;;;;;1582219;75;703;-65
2022/03/19 00:08:44;;;;;;;;;;;23.90;43.60;;;;;;1582191;75;731;-65
2022/03/19 00:10:46;;;;;;;;;;;24.00;43.60;;;;;;1581260;75;727;-64
2022/03/19 00:12:48;;;;;;;;;;;24.00;43.60;;;;;;1582109;74;1945;-65
2022/03/19 00:14:50;;;;;;;;;;;24.00;43.60;;;;;;1582124;75;773;-65
2022/03/19 00:16:53;;;;;;;;;;;23.90;43.60;;;;;;1582348;75;732;-65
2022/03/19 00:18:55;;;;;;;;;;;24.00;43.60;;;;;;1582355;75;728;-67
2022/03/19 00:20:56;;;;;;;;;;;24.00;43.70;;;;;;1581289;75;844;-65
2022/03/19 00:22:59;;;;;;;;;;;23.90;43.60;;;;;;1577938;74;1193;-65
2022/03/19 00:25:00;;;;;;;;;;;23.90;43.60;;;;;;1581835;75;738;-65
2022/03/19 00:27:02;;;;;;;;;;;23.90;43.70;;;;;;1582256;75;708;-66
2022/03/19 00:29:04;;;;;;;;;;;23.90;43.70;;;;;;1582222;75;724;-65
2022/03/19 00:31:06;;;;;;;;;;;23.90;43.70;;;;;;1582216;75;1933;-64
2022/03/19 00:33:08;;;;;;;;;;;23.90;43.70;;;;;;1581823;74;1115;-65
2022/03/19 00:35:10;;;;;;;;;;;23.90;43.70;;;;;;1582176;75;783;-64
2022/03/19 00:37:12;;;;;;;;;;;23.90;43.60;;;;;;1582245;74;719;-64
2022/03/19 00:39:14;;;;;;;;;;;23.90;43.70;;;;;;1582285;75;691;-65
2022/03/19 00:41:16;;;;;;;;;;;23.90;43.80;;;;;;1582245;75;729;-66
2022/03/19 00:43:22;;;;;;;;;;;23.90;43.80;;;;;;1580991;75;1076;-64
2022/03/19 00:45:21;;;;;;;;;;;23.90;43.80;;;;;;1582698;74;1244;-66
2022/03/19 00:47:23;;;;;;;;;;;23.90;43.80;;;;;;1582261;75;808;-65
2022/03/19 00:49:25;;;;;;;;;;;23.90;43.80;;;;;;1582294;74;718;-65
2022/03/19 00:51:27;;;;;;;;;;;23.90;43.80;;;;;;1582178;74;1931;-65
2022/03/19 00:53:29;;;;;;;;;;;23.90;43.80;;;;;;1581248;75;721;-64
2022/03/19 00:55:31;;;;;;;;;;;23.90;43.80;;;;;;1583026;74;743;-65
2022/03/19 00:57:43;;;;;;;;;;;23.90;43.80;;;;;;1582377;75;711;-64
2022/03/19 00:59:44;;;;;;;;;;;23.90;43.80;;;;;;1580436;75;810;-64
2022/03/19 01:01:46;;;;;;;;;;;23.90;43.80;;;;;;1582347;74;1185;-65
2022/03/19 01:03:48;;;;;;;;;;;23.90;43.90;;;;;;1581155;75;779;-65
2022/03/19 01:05:50;;;;;;;;;;;23.90;43.90;;;;;;1582113;75;809;-64
2022/03/19 01:07:53;;;;;;;;;;;23.90;43.90;;;;;;1582258;75;732;-65
2022/03/19 01:09:55;;;;;;;;;;;23.90;43.90;;;;;;1585394;73;1283;-67
2022/03/19 01:11:57;;;;;;;;;;;24.00;43.90;;;;;;1581963;74;1930;-65
2022/03/19 01:13:58;;;;;;;;;;;23.90;43.90;;;;;;1577883;75;783;-63
2022/03/19 01:16:02;;;;;;;;;;;23.90;43.90;;;;;;1582157;75;778;-64
2022/03/19 01:18:05;;;;;;;;;;;24.00;43.90;;;;;;1582291;75;741;-64
2022/03/19 01:20:08;;;;;;;;;;;23.90;43.90;;;;;;1582245;75;739;-65
2022/03/19 01:22:10;;;;;;;;;;;23.90;43.90;;;;;;1581135;74;1110;-65
2022/03/19 01:24:12;;;;;;;;;;;24.00;44.00;;;;;;1582368;75;737;-65
2022/03/19 01:26:14;;;;;;;;;;;24.00;44.00;;;;;;1582036;75;796;-65
2022/03/19 01:28:16;;;;;;;;;;;23.90;44.00;;;;;;1580500;75;744;-66
2022/03/19 01:30:19;;;;;;;;;;;23.90;44.10;;;;;;1577341;73;729;-66
2022/03/19 01:32:21;;;;;;;;;;;23.90;44.10;;;;;;1574543;74;1936;-64
2022/03/19 01:34:23;;;;;;;;;;;23.90;44.10;;;;;;1574773;75;570;-65
2022/03/19 01:36:24;;;;;;;;;;;23.90;44.10;;;;;;1574724;75;799;-66
2022/03/19 01:38:26;;;;;;;;;;;23.90;44.10;;;;;;1579594;75;738;-64
2022/03/19 01:40:28;;;;;;;;;;;23.90;44.10;;;;;;1586024;75;740;-64
2022/03/19 01:42:31;;;;;;;;;;;23.90;44.10;;;;;;1585962;74;1115;-64
2022/03/19 01:44:33;;;;;;;;;;;23.90;44.00;;;;;;1585778;74;749;-67
2022/03/19 01:46:53;;;;;;;;;;;23.90;44.00;;;;;;1584932;75;681;-65
2022/03/19 01:48:55;;;;;;;;;;;23.90;44.10;;;;;;1585970;75;573;-65
2022/03/19 01:50:57;;;;;;;;;;;23.90;44.00;;;;;;1585929;75;700;-67
2022/03/19 01:52:59;;;;;;;;;;;23.90;44.00;;;;;;1583162;74;1959;-65
2022/03/19 01:55:01;;;;;;;;;;;23.90;43.90;;;;;;1579860;75;798;-65
2022/03/19 01:57:03;;;;;;;;;;;23.90;44.00;;;;;;1577080;74;757;-64
2022/03/19 01:59:05;;;;;;;;;;;23.90;44.00;;;;;;1582965;74;709;-65
2022/03/19 02:01:07;;;;;;;;;;;23.90;43.90;;;;;;1584974;75;776;-65
2022/03/19 02:03:09;;;;;;;;;;;23.90;44.00;;;;;;1584520;74;1112;-64
2022/03/19 02:05:12;;;;;;;;;;;23.90;43.90;;;;;;1580235;75;646;-64
2022/03/19 02:07:14;;;;;;;;;;;23.90;44.00;;;;;;1580681;75;789;-64
2022/03/19 02:09:16;;;;;;;;;;;23.90;43.90;;;;;;1584936;74;784;-65
2022/03/19 02:11:18;;;;;;;;;;;23.80;43.90;;;;;;1585863;75;771;-65
2022/03/19 02:13:20;;;;;;;;;;;23.90;44.00;;;;;;1585884;74;1945;-65
2022/03/19 02:15:22;;;;;;;;;;;23.90;44.00;;;;;;1573335;75;757;-65
2022/03/19 02:17:26;;;;;;;;;;;23.80;43.90;;;;;;1581688;75;690;-65
2022/03/19 02:19:28;;;;;;;;;;;23.90;43.90;;;;;;1574872;75;700;-65
2022/03/19 02:21:44;;;;;;;;;;;23.90;44.00;;;;;;1574626;74;1112;-65
2022/03/19 02:26:07;;;;;;;;;;;23.90;44.00;;;;;;1585780;75;1649;-65
2022/03/19 02:28:09;;;;;;;;;;;24.00;43.90;;;;;;1582558;74;804;-66
2022/03/19 02:30:11;;;;;;;;;;;23.90;43.90;;;;;;1581768;74;792;-66
2022/03/19 02:32:13;;;;;;;;;;;23.90;43.90;;;;;;1581275;74;1953;-66
2022/03/19 02:34:15;;;;;;;;;;;23.90;43.90;;;;;;1581486;75;745;-67
2022/03/19 02:36:20;;;;;;;;;;;23.90;43.90;;;;;;1580329;75;725;-66
2022/03/19 02:38:21;;;;;;;;;;;23.90;43.90;;;;;;1584536;74;1711;-66
2022/03/19 02:40:22;;;;;;;;;;;24.00;43.90;;;;;;1585859;75;729;-66
2022/03/19 02:42:24;;;;;;;;;;;23.90;43.90;;;;;;1585895;75;1162;-67
2022/03/19 02:44:26;;;;;;;;;;;23.90;43.80;;;;;;1585722;75;750;-66
2022/03/19 02:46:32;;;;;;;;;;;23.90;43.90;;;;;;1583384;75;792;-67
2022/03/19 02:48:34;;;;;;;;;;;23.90;43.90;;;;;;1575473;75;1778;-66
2022/03/19 02:50:37;;;;;;;;;;;23.90;43.90;;;;;;1580334;75;820;-67
2022/03/19 02:52:38;;;;;;;;;;;23.90;43.90;;;;;;1580338;74;1949;-66
2022/03/19 02:54:40;;;;;;;;;;;24.00;43.90;;;;;;1581547;75;705;-67
2022/03/19 02:56:42;;;;;;;;;;;23.90;43.80;;;;;;1585964;75;789;-66
2022/03/19 02:58:44;;;;;;;;;;;23.90;43.90;;;;;;1585907;75;732;-65
2022/03/19 03:00:46;;;;;;;;;;;23.90;43.90;;;;;;1585845;75;921;-66
2022/03/19 03:02:48;;;;;;;;;;;23.90;43.90;;;;;;1584744;74;1125;-66
2022/03/19 03:04:50;;;;;;;;;;;23.90;43.90;;;;;;1580857;75;739;-67
2022/03/19 03:06:53;;;;;;;;;;;23.80;43.90;;;;;;1580330;75;662;-66
2022/03/19 03:08:56;;;;;;;;;;;23.80;43.90;;;;;;1558803;76;818;-66
2022/03/19 03:10:58;;;;;;;;;;;23.80;43.90;;;;;;1558639;76;635;-66
2022/03/19 03:13:00;;;;;;;;;;;23.80;43.90;;;;;;1579038;75;1945;-68
2022/03/19 03:15:02;;;;;;;;;;;23.80;44.00;;;;;;1585847;75;726;-66
2022/03/19 03:17:04;;;;;;;;;;;23.80;44.00;;;;;;1585729;75;735;-65
2022/03/19 03:19:06;;;;;;;;;;;23.80;44.00;;;;;;1585884;75;717;-66
2022/03/19 03:21:08;;;;;;;;;;;23.80;44.00;;;;;;1584843;75;734;-65
2022/03/19 03:23:11;;;;;;;;;;;23.90;44.10;;;;;;1585676;74;1106;-66
2022/03/19 03:25:13;;;;;;;;;;;23.80;44.00;;;;;;1584795;75;546;-67
2022/03/19 03:27:14;;;;;;;;;;;23.80;44.00;;;;;;1585690;75;710;-67
2022/03/19 03:29:17;;;;;;;;;;;23.90;44.10;;;;;;1586055;75;599;-66
2022/03/19 03:31:19;;;;;;;;;;;23.90;44.20;;;;;;1565479;73;755;-65
2022/03/19 03:33:22;;;;;;;;;;;23.90;44.20;;;;;;1574044;74;1964;-65
2022/03/19 03:35:25;;;;;;;;;;;24.10;44.20;;;;;;1584338;75;835;-65
2022/03/19 03:37:30;;;;;;;;;;;24.00;43.90;;;;;;1585220;75;849;-66
2022/03/19 03:39:32;;;;;;;;;;;24.10;43.90;;;;;;1585775;75;773;-66
2022/03/19 03:41:34;;;;;;;;;;;24.10;43.80;;;;;;1584772;74;1088;-66
2022/03/19 03:43:36;;;;;;;;;;;24.20;43.60;;;;;;1582889;73;2073;-63
2022/03/19 03:45:38;;;;;;;;;;;24.20;43.50;;;;;;1579529;74;672;-60
2022/03/19 03:47:39;;;;;;;;;;;24.20;43.60;;;;;;1578835;74;782;-62
2022/03/19 03:49:41;;;;;;;;;;;24.10;43.70;;;;;;1580291;75;715;-62
2022/03/19 03:51:43;;;;;;;;;;;24.10;43.90;;;;;;1580621;74;766;-61
2022/03/19 03:53:45;;;;;;;;;;;24.10;44.10;;;;;;1580271;75;1938;-61
2022/03/19 03:55:47;;;;;;;;;;;24.00;44.20;;;;;;1607356;73;781;-63
2022/03/19 03:57:49;;;;;;;;;;;23.90;44.30;;;;;;1600839;74;833;-63
2022/03/19 03:59:52;;;;;;;;;;;23.80;44.40;;;;;;1580620;75;786;-61
2022/03/19 04:01:54;;;;;;;;;;;23.90;44.50;;;;;;1608402;73;752;-60
2022/03/19 04:03:56;;;;;;;;;;;23.70;44.70;;;;;;1614476;73;1126;-63
2022/03/19 04:05:58;;;;;;;;;;;23.70;44.70;;;;;;1606502;73;599;-64
2022/03/19 04:08:00;;;;;;;;;;;23.70;45.00;;;;;;1605915;74;749;-66
2022/03/19 04:10:02;;;;;;;;;;;23.70;45.00;;;;;;1603937;74;784;-64
2022/03/19 04:12:05;;;;;;;;;;;23.70;45.00;;;;;;1603793;74;673;-64
2022/03/19 04:14:07;;;;;;;;;;;23.70;45.00;;;;;;1603872;74;1915;-63
2022/03/19 04:16:09;;;;;;;;;;;23.70;45.10;;;;;;1605362;74;793;-62
2022/03/19 04:18:13;;;;;;;;;;;23.70;45.20;;;;;;1608568;74;797;-64
2022/03/19 04:20:15;;;;;;;;;;;23.70;45.20;;;;;;1608527;74;748;-65
2022/03/19 04:22:17;;;;;;;;;;;23.70;45.20;;;;;;1608506;73;656;-64
2022/03/19 04:24:19;;;;;;;;;;;23.70;45.30;;;;;;1605450;74;673;-65
2022/03/19 04:26:21;;;;;;;;;;;23.70;45.30;;;;;;1583898;74;794;-68
2022/03/19 04:28:23;;;;;;;;;;;23.70;45.30;;;;;;1593154;74;704;-65
2022/03/19 04:30:26;;;;;;;;;;;23.70;45.20;;;;;;1599196;74;720;-66
2022/03/19 04:32:28;;;;;;;;;;;23.70;45.20;;;;;;1593074;74;1187;-66
2022/03/19 04:34:30;;;;;;;;;;;23.70;45.20;;;;;;1590653;74;1858;-66
2022/03/19 04:36:38;;;;;;;;;;;23.70;45.20;;;;;;1579335;74;740;-66
2022/03/19 04:38:40;;;;;;;;;;;23.80;45.20;;;;;;1599677;72;708;-70
2022/03/19 04:40:43;;;;;;;;;;;23.70;45.20;;;;;;1602147;74;776;-66
2022/03/19 04:42:45;;;;;;;;;;;23.70;45.20;;;;;;1603259;73;1182;-66
2022/03/19 04:44:46;;;;;;;;;;;23.70;45.20;;;;;;1608654;73;774;-66
2022/03/19 04:46:48;;;;;;;;;;;23.80;45.20;;;;;;1599324;73;668;-66
2022/03/19 04:48:50;;;;;;;;;;;23.80;45.20;;;;;;1598564;74;751;-68
2022/03/19 04:50:52;;;;;;;;;;;23.70;45.20;;;;;;1604281;73;798;-69
2022/03/19 04:52:54;;;;;;;;;;;23.80;45.20;;;;;;1598775;73;1934;-65
2022/03/19 04:55:00;;;;;;;;;;;23.80;45.20;;;;;;1575263;75;700;-72
2022/03/19 04:57:02;;;;;;;;;;;23.70;45.20;;;;;;1567238;74;958;-66
2022/03/19 04:59:03;;;;;;;;;;;23.80;45.20;;;;;;1569643;74;1133;-66
2022/03/19 05:01:05;;;;;;;;;;;23.70;45.20;;;;;;1605862;73;790;-69
2022/03/19 05:03:07;;;;;;;;;;;23.80;45.20;;;;;;1575625;75;1184;-69
2022/03/19 05:05:09;;;;;;;;;;;23.80;45.20;;;;;;1607656;73;732;-67
2022/03/19 05:07:11;;;;;;;;;;;23.80;45.20;;;;;;1604211;72;729;-67
2022/03/19 05:11:32;;;;;;;;;;;23.90;45.30;;;;;;1600290;74;1631;-68
2022/03/19 05:13:34;;;;;;;;;;;23.80;45.30;;;;;;1607558;73;1996;-67
2022/03/19 05:15:36;;;;;;;;;;;23.90;45.40;;;;;;1603016;74;655;-70
2022/03/19 05:17:38;;;;;;;;;;;23.80;45.30;;;;;;1598757;74;788;-68
2022/03/19 05:19:40;;;;;;;;;;;23.90;45.30;;;;;;1603269;73;780;-69
2022/03/19 05:21:42;;;;;;;;;;;23.90;45.40;;;;;;1595138;74;720;-65
2022/03/19 05:23:49;;;;;;;;;;;23.80;45.40;;;;;;1600621;73;1113;-66
2022/03/19 05:25:47;;;;;;;;;;;23.90;45.50;;;;;;1603861;73;1374;-66
2022/03/19 05:27:49;;;;;;;;;;;23.80;45.30;;;;;;1603624;74;755;-66
2022/03/19 05:29:51;;;;;;;;;;;23.90;45.40;;;;;;1600382;73;722;-66
2022/03/19 05:31:53;;;;;;;;;;;23.90;45.50;;;;;;1606826;74;659;-67
2022/03/19 05:36:04;;;;;;;;;;;23.90;45.50;;;;;;1555278;74;1087;-65
2022/03/19 05:38:06;;;;;;;;;;;23.90;45.50;;;;;;1575981;75;759;-66
2022/03/19 05:40:09;;;;;;;;;;;23.90;45.50;;;;;;1606800;73;664;-66
2022/03/19 05:42:15;;;;;;;;;;;23.90;45.50;;;;;;1601162;73;721;-66
2022/03/19 05:44:14;;;;;;;;;;;23.90;45.50;;;;;;1593977;74;1408;-66
2022/03/19 05:46:16;;;;;;;;;;;23.90;45.50;;;;;;1573549;74;831;-67
2022/03/19 05:48:18;;;;;;;;;;;23.90;45.50;;;;;;1597144;74;677;-68
2022/03/19 05:50:20;;;;;;;;;;;23.90;45.70;;;;;;1584312;74;769;-71
2022/03/19 05:52:22;;;;;;;;;;;23.90;45.60;;;;;;1580166;74;1148;-67
2022/03/19 05:54:24;;;;;;;;;;;23.90;45.60;;;;;;1580295;74;1937;-67
2022/03/19 05:56:26;;;;;;;;;;;24.00;45.50;;;;;;1583294;74;743;-67
2022/03/19 05:58:27;;;;;;;;;;;23.90;45.50;;;;;;1568375;74;693;-67
2022/03/19 06:00:29;;;;;;;;;;;23.90;45.60;;;;;;1594781;74;764;-66
2022/03/19 06:02:31;;;;;;;;;;;24.00;45.50;;;;;;1591211;74;1147;-66
2022/03/19 06:04:34;;;;;;;;;;;24.00;45.50;;;;;;1587234;74;681;-66
2022/03/19 06:06:36;;;;;;;;;;;23.90;45.50;;;;;;1570245;74;775;-66
2022/03/19 06:08:38;;;;;;;;;;;23.90;45.50;;;;;;1585599;74;705;-66
2022/03/19 06:10:40;;;;;;;;;;;24.00;45.50;;;;;;1578125;74;707;-67
2022/03/19 06:12:43;;;;;;;;;;;24.00;45.50;;;;;;1587530;74;1144;-66
2022/03/19 06:14:45;;;;;;;;;;;23.90;45.50;;;;;;1583210;73;1938;-67
2022/03/19 06:16:49;;;;;;;;;;;24.00;45.50;;;;;;1592499;74;793;-67
2022/03/19 06:18:51;;;;;;;;;;;24.00;45.50;;;;;;1583423;74;701;-63
2022/03/19 06:20:53;;;;;;;;;;;24.00;45.50;;;;;;1586635;74;664;-67
2022/03/19 06:22:55;;;;;;;;;;;24.00;45.50;;;;;;1583347;73;1148;-66
2022/03/19 06:24:56;;;;;;;;;;;24.00;45.50;;;;;;1586665;74;779;-66
2022/03/19 06:26:58;;;;;;;;;;;24.00;45.70;;;;;;1591075;74;523;-67
2022/03/19 06:29:00;;;;;;;;;;;24.00;45.80;;;;;;1588385;74;716;-67
2022/03/19 06:31:02;;;;;;;;;;;24.00;45.70;;;;;;1582739;74;720;-66
2022/03/19 06:33:04;;;;;;;;;;;24.00;45.70;;;;;;1589895;74;1121;-65
2022/03/19 06:35:06;;;;;;;;;;;24.00;45.60;;;;;;1583891;74;1962;-70
2022/03/19 06:37:20;;;;;;;;;;;24.00;45.70;;;;;;1588291;74;671;-67
2022/03/19 06:39:22;;;;;;;;;;;24.00;45.70;;;;;;1581081;74;714;-67
2022/03/19 06:41:24;;;;;;;;;;;24.00;45.70;;;;;;1580385;74;696;-68
2022/03/19 06:43:26;;;;;;;;;;;24.00;45.70;;;;;;1577849;74;1178;-71
2022/03/19 06:45:28;;;;;;;;;;;24.10;45.90;;;;;;1570661;74;833;-72
2022/03/19 06:47:31;;;;;;;;;;;24.10;45.40;;;;;;1578676;74;707;-70
2022/03/19 06:49:32;;;;;;;;;;;24.10;45.10;;;;;;1580597;73;770;-72
2022/03/19 06:51:36;;;;;;;;;;;24.10;45.00;;;;;;1576216;74;670;-72
2022/03/19 06:53:38;;;;;;;;;;;24.00;44.80;;;;;;1576904;74;1924;-72
2022/03/19 06:55:40;;;;;;;;;;;24.10;44.70;;;;;;1583494;74;754;-71
2022/03/19 06:57:42;;;;;;;;;;;24.10;44.60;;;;;;1587173;74;779;-73
2022/03/19 06:59:43;;;;;;;;;;;24.10;44.30;;;;;;1588687;74;728;-70
2022/03/19 07:01:45;;;;;;;;;;;24.10;44.30;;;;;;1591850;73;799;-71
2022/03/19 07:03:47;;;;;;;;;;;24.10;44.20;;;;;;1597710;74;1111;-69
2022/03/19 07:05:49;;;;;;;;;;;24.20;44.10;;;;;;1592983;73;721;-69
2022/03/19 07:07:51;;;;;;;;;;;24.30;44.00;;;;;;1592854;73;762;-69
2022/03/19 07:09:54;;;;;;;;;;;24.30;43.50;;;;;;1562300;74;659;-70
2022/03/19 07:11:56;;;;;;;;;;;24.30;43.50;;;;;;1569874;75;649;-69
2022/03/19 07:13:58;;;;;;;;;;;24.50;43.30;;;;;;1570660;74;1954;-69
2022/03/19 07:16:00;;;;;;;;;;;24.40;43.10;;;;;;1565062;75;675;-68
2022/03/19 07:18:02;;;;;;;;;;;24.40;42.80;;;;;;1565130;75;704;-68
2022/03/19 07:20:04;;;;;;;;;;;24.40;42.90;;;;;;1564973;75;763;-68
2022/03/19 07:22:06;;;;;;;;;;;24.40;43.00;;;;;;1573265;74;682;-69
2022/03/19 07:24:08;;;;;;;;;;;24.40;42.80;;;;;;1567504;74;1106;-69
2022/03/19 07:26:10;;;;;;;;;;;24.40;42.70;;;;;;1570893;74;731;-70
2022/03/19 07:28:13;;;;;;;;;;;24.40;42.60;;;;;;1565020;75;739;-68
2022/03/19 07:30:15;;;;;;;;;;;24.40;42.60;;;;;;1567706;73;1973;-68
2022/03/19 07:32:17;;;;;;;;;;;24.50;42.60;;;;;;1579710;73;711;-69
2022/03/19 07:34:19;;;;;;;;;;;24.40;42.30;;;;;;1587288;73;1934;-68
2022/03/19 07:36:20;;;;;;;;;;;24.40;42.30;;;;;;1580166;74;714;-68
2022/03/19 07:38:22;;;;;;;;;;;24.50;42.30;;;;;;1590714;73;781;-69
2022/03/19 07:42:44;;;;;;;;;;;24.40;42.30;;;;;;1570240;75;1627;-67
2022/03/19 07:44:46;;;;;;;;;;;24.40;42.40;;;;;;1586469;74;788;-67
2022/03/19 07:46:48;;;;;;;;;;;24.40;42.40;;;;;;1590530;74;689;-67
2022/03/19 07:48:50;;;;;;;;;;;24.50;42.30;;;;;;1582307;74;727;-69
2022/03/19 07:50:52;;;;;;;;;;;24.40;42.20;;;;;;1598096;74;794;-67
2022/03/19 07:52:54;;;;;;;;;;;24.40;42.20;;;;;;1589216;74;1179;-68
2022/03/19 07:54:56;;;;;;;;;;;24.40;42.00;;;;;;1589246;74;1947;-68
2022/03/19 07:56:58;;;;;;;;;;;24.50;42.10;;;;;;1585725;73;698;-68
2022/03/19 07:59:00;;;;;;;;;;;24.40;41.90;;;;;;1579641;74;699;-68
2022/03/19 08:01:02;;;;;;;;;;;24.40;42.00;;;;;;1587398;74;774;-69
2022/03/19 08:03:03;;;;;;;;;;;24.40;41.90;;;;;;1595156;74;1144;-67
2022/03/19 08:05:06;;;;;;;;;;;24.40;41.90;;;;;;1587419;74;722;-67
2022/03/19 08:07:08;;;;;;;;;;;24.40;41.90;;;;;;1590452;74;729;-67
2022/03/19 08:09:10;;;;;;;;;;;24.40;41.80;;;;;;1591268;74;730;-70
2022/03/19 08:11:14;;;;;;;;;;;24.40;41.90;;;;;;1589428;74;706;-68
2022/03/19 08:13:15;;;;;;;;;;;24.50;42.00;;;;;;1582407;74;1994;-67
2022/03/19 08:15:17;;;;;;;;;;;24.40;41.70;;;;;;1592682;74;1947;-70
2022/03/19 08:17:19;;;;;;;;;;;24.50;41.70;;;;;;1590267;74;572;-67
2022/03/19 08:19:24;;;;;;;;;;;24.50;41.60;;;;;;1586038;74;678;-67
2022/03/19 08:21:25;;;;;;;;;;;24.50;41.50;;;;;;1590757;74;1675;-67
2022/03/19 08:23:27;;;;;;;;;;;24.60;41.40;;;;;;1591517;74;1168;-67
2022/03/19 08:25:28;;;;;;;;;;;24.70;41.40;;;;;;1589185;74;705;-68
2022/03/19 08:27:30;;;;;;;;;;;24.60;41.20;;;;;;1587740;74;681;-67
2022/03/19 08:29:32;;;;;;;;;;;24.60;41.10;;;;;;1592164;73;703;-67
2022/03/19 08:31:34;;;;;;;;;;;24.70;41.20;;;;;;1589042;74;715;-68
2022/03/19 08:33:36;;;;;;;;;;;24.70;41.10;;;;;;1572191;74;1129;-67
2022/03/19 08:35:38;;;;;;;;;;;24.70;41.00;;;;;;1571882;74;1942;-68
2022/03/19 08:37:40;;;;;;;;;;;24.70;41.00;;;;;;1573528;74;807;-67
2022/03/19 08:42:02;;;;;;;;;;;24.60;41.10;;;;;;1585832;74;1628;-67
2022/03/19 08:44:05;;;;;;;;;;;24.60;41.00;;;;;;1590359;74;1160;-66
2022/03/19 08:46:06;;;;;;;;;;;24.50;41.10;;;;;;1587468;74;795;-68
2022/03/19 08:48:09;;;;;;;;;;;24.50;41.00;;;;;;1595495;74;693;-68
2022/03/19 08:50:11;;;;;;;;;;;24.50;41.00;;;;;;1588250;74;787;-70
2022/03/19 08:52:13;;;;;;;;;;;24.50;41.00;;;;;;1578343;74;763;-70
2022/03/19 08:54:16;;;;;;;;;;;24.50;41.00;;;;;;1588354;74;1941;-67
2022/03/19 08:56:17;;;;;;;;;;;24.30;41.20;;;;;;1586157;74;708;-69
2022/03/19 08:58:19;;;;;;;;;;;24.30;41.10;;;;;;1590896;74;737;-69
2022/03/19 09:00:21;;;;;;;;;;;24.30;41.20;;;;;;1587761;74;765;-69
2022/03/19 09:02:23;;;;;;;;;;;24.20;41.10;;;;;;1587099;74;1157;-69
2022/03/19 09:04:25;;;;;;;;;;;24.20;41.30;;;;;;1588928;74;781;-69
2022/03/19 09:06:27;;;;;;;;;;;24.20;41.30;;;;;;1592466;74;786;-67
2022/03/19 09:08:29;;;;;;;;;;;24.20;41.30;;;;;;1589841;74;755;-68
2022/03/19 09:10:30;;;;;;;;;;;24.10;41.40;;;;;;1592686;74;769;-68
2022/03/19 09:12:32;;;;;;;;;;;24.10;41.40;;;;;;1590604;74;1154;-68
2022/03/19 09:14:34;;;;;;;;;;;24.00;41.30;;;;;;1588796;74;1949;-69
2022/03/19 09:16:36;;;;;;;;;;;24.00;41.30;;;;;;1593606;74;720;-70
2022/03/19 09:18:38;;;;;;;;;;;24.00;41.30;;;;;;1588821;73;732;-71
2022/03/19 09:20:40;;;;;;;;;;;24.00;41.30;;;;;;1594769;74;751;-67
2022/03/19 09:22:42;;;;;;;;;;;24.00;41.40;;;;;;1591284;74;1141;-68
2022/03/19 09:24:44;;;;;;;;;;;24.00;41.40;;;;;;1583112;74;778;-68
2022/03/19 09:26:46;;;;;;;;;;;24.00;41.40;;;;;;1588358;74;741;-69
2022/03/19 09:28:48;;;;;;;;;;;24.00;41.40;;;;;;1582227;74;765;-69
2022/03/19 09:30:51;;;;;;;;;;;24.00;41.50;;;;;;1590404;74;886;-71
2022/03/19 09:32:56;;;;;;;;;;;24.00;41.40;;;;;;1580997;74;1137;-68
2022/03/19 09:34:56;;;;;;;;;;;24.00;41.40;;;;;;1587596;74;1913;-72
2022/03/19 09:36:58;;;;;;;;;;;24.00;41.40;;;;;;1588296;74;694;-70
2022/03/19 09:39:00;;;;;;;;;;;23.90;41.40;;;;;;1579976;73;889;-68
2022/03/19 09:41:02;;;;;;;;;;;23.90;41.40;;;;;;1588610;74;752;-69
2022/03/19 09:43:04;;;;;;;;;;;24.00;41.40;;;;;;1582607;71;229148;-67
2022/03/19 09:45:06;;;;;;;;;;;24.00;41.40;;;;;;1576514;74;694;-65
2022/03/19 09:47:08;;;;;;;;;;;23.90;41.40;;;;;;1579949;74;767;-65
2022/03/19 09:49:10;;;;;;;;;;;23.90;41.40;;;;;;1582635;74;751;-66
2022/03/19 09:51:12;;;;;;;;;;;23.90;41.50;;;;;;1579279;74;780;-65
2022/03/19 09:53:14;;;;;;;;;;;23.90;41.40;;;;;;1565113;74;1188;-64
2022/03/19 09:55:16;;;;;;;;;;;23.90;41.50;;;;;;1558670;74;1933;-64
2022/03/19 09:57:18;;;;;;;;;;;23.90;41.40;;;;;;1562527;74;839;-65
2022/03/19 09:59:22;;;;;;;;;;;23.90;41.40;;;;;;1564203;74;651;-65
2022/03/19 10:01:25;;;;;;;;;;;23.90;41.40;;;;;;1561353;74;1644;-64
2022/03/19 10:03:26;;;;;;;;;;;23.90;41.40;;;;;;1555303;74;1099;-64
2022/03/19 10:10:13;;;;;;;;;;;23.90;41.30;;;;;;1563488;74;791;-64
2022/03/19 10:12:16;;;;;;;;;;;23.90;41.30;;;;;;1566414;75;737;-64
2022/03/19 10:14:22;;;;;;;;;;;23.90;41.30;;;;;;1565181;74;1343;-65
2022/03/19 10:16:30;;;;;;;;;;;23.90;41.30;;;;;;1563783;74;1898;-65
2022/03/19 10:18:32;;;;;;;;;;;23.90;41.30;;;;;;1564997;74;885;-64
2022/03/19 10:20:34;;;;;;;;;;;23.90;41.30;;;;;;1563898;74;914;-64
2022/03/19 10:22:38;;;;;;;;;;;23.90;41.20;;;;;;1565668;74;803;-65
2022/03/19 10:24:40;;;;;;;;;;;23.90;41.20;;;;;;1553750;74;1112;-63
2022/03/19 10:26:42;;;;;;;;;;;23.90;41.30;;;;;;1564257;74;735;-65
2022/03/19 10:28:44;;;;;;;;;;;23.90;41.20;;;;;;1566184;74;765;-64
2022/03/19 10:30:45;;;;;;;;;;;23.90;41.20;;;;;;1560702;74;742;-64
2022/03/19 10:32:48;;;;;;;;;;;23.90;41.30;;;;;;1565734;74;1140;-64
2022/03/19 10:34:50;;;;;;;;;;;23.90;41.30;;;;;;1569059;74;1930;-64
2022/03/19 10:36:52;;;;;;;;;;;23.90;41.20;;;;;;1563524;74;694;-64
2022/03/19 10:38:53;;;;;;;;;;;23.90;41.40;;;;;;1566044;74;726;-64
2022/03/19 10:40:55;;;;;;;;;;;23.90;41.30;;;;;;1557243;75;611;-66
2022/03/19 10:42:57;;;;;;;;;;;23.90;41.30;;;;;;1563875;74;1125;-65
2022/03/19 10:44:59;;;;;;;;;;;23.90;41.30;;;;;;1575007;74;763;-68
2022/03/19 10:47:03;;;;;;;;;;;24.00;41.20;;;;;;1565012;74;752;-64
2022/03/19 10:49:06;;;;;;;;;;;24.00;41.10;;;;;;1564197;74;758;-64
2022/03/19 10:51:09;;;;;;;;;;;24.00;41.20;;;;;;1562976;74;1935;-64
2022/03/19 10:53:11;;;;;;;;;;;24.00;41.10;;;;;;1564095;74;1185;-64
2022/03/19 10:55:13;;;;;;;;;;;24.00;40.90;;;;;;1562732;75;1939;-64
2022/03/19 10:57:14;;;;;;;;;;;23.90;41.00;;;;;;1564257;74;666;-64
2022/03/19 10:59:16;;;;;;;;;;;24.00;41.00;;;;;;1564055;74;720;-65
2022/03/19 11:01:18;;;;;;;;;;;23.90;40.90;;;;;;1564285;74;731;-64
2022/03/19 11:03:20;;;;;;;;;;;23.90;41.00;;;;;;1562732;75;1127;-64
2022/03/19 11:05:22;;;;;;;;;;;23.90;41.00;;;;;;1568500;74;736;-64
2022/03/19 11:07:24;;;;;;;;;;;23.90;41.00;;;;;;1574700;74;835;-63
2022/03/19 11:09:27;;;;;;;;;;;23.90;41.00;;;;;;1594190;74;789;-63
2022/03/19 11:11:32;;;;;;;;;;;23.80;40.90;;;;;;1590684;74;716;-63
2022/03/19 11:13:37;;;;;;;;;;;23.90;41.00;;;;;;1563670;74;1077;-64
2022/03/19 11:15:37;;;;;;;;;;;23.90;41.00;;;;;;1563409;74;1942;-63
2022/03/19 11:17:42;;;;;;;;;;;23.90;41.00;;;;;;1564396;74;766;-64
2022/03/19 11:19:44;;;;;;;;;;;23.80;41.00;;;;;;1563916;74;677;-65
2022/03/19 11:21:46;;;;;;;;;;;23.80;41.00;;;;;;1592613;74;724;-63
2022/03/19 11:23:59;;;;;;;;;;;23.90;41.10;;;;;;1596319;74;1131;-64
2022/03/19 11:26:01;;;;;;;;;;;23.80;41.10;;;;;;1562134;74;708;-64
2022/03/19 11:28:07;;;;;;;;;;;23.90;41.30;;;;;;1564173;74;773;-64
2022/03/19 11:30:11;;;;;;;;;;;23.80;41.30;;;;;;1563457;74;1389;-63
2022/03/19 11:32:22;;;;;;;;;;;23.80;41.40;;;;;;1560449;74;1814;-63
2022/03/19 11:34:24;;;;;;;;;;;23.80;41.50;;;;;;1570451;74;1108;-64
2022/03/19 11:36:26;;;;;;;;;;;23.80;41.60;;;;;;1595493;74;1921;-63
2022/03/19 11:38:29;;;;;;;;;;;23.90;41.70;;;;;;1575048;74;749;-64
2022/03/19 11:40:32;;;;;;;;;;;23.90;41.80;;;;;;1563934;74;723;-61
2022/03/19 11:42:34;;;;;;;;;;;23.90;41.80;;;;;;1563398;74;688;-63
2022/03/19 11:44:38;;;;;;;;;;;23.80;41.80;;;;;;1563906;75;1191;-64
2022/03/19 11:46:58;;;;;;;;;;;23.90;41.90;;;;;;1561592;74;1889;-64
2022/03/19 11:49:00;;;;;;;;;;;23.90;41.90;;;;;;1564344;74;693;-64
2022/03/19 11:51:17;;;;;;;;;;;23.90;41.90;;;;;;1563080;74;787;-63
2022/03/19 11:53:19;;;;;;;;;;;23.90;41.90;;;;;;1553647;74;1180;-64
2022/03/19 11:55:21;;;;;;;;;;;23.80;41.80;;;;;;1563521;74;1951;-63
2022/03/19 11:57:23;;;;;;;;;;;23.80;41.80;;;;;;1529416;76;1061;-63
2022/03/19 11:59:26;;;;;;;;;;;23.90;41.90;;;;;;1529653;76;1387;-64
2022/03/19 12:01:48;;;;;;;;;;;23.90;42.00;;;;;;1524285;78;744;-66
2022/03/19 12:04:12;;;;;;;;;;;23.90;42.10;;;;;;1562325;74;1128;-67
2022/03/19 12:06:30;;;;;;;;;;;23.80;38.60;;;;;;1559309;74;680;-67
2022/03/19 12:08:32;;;;;;;;;;;23.80;35.00;;;;;;1566938;74;714;-67
2022/03/19 12:10:41;;;;;;;;;;;23.70;32.00;;;;;;1563525;74;751;-67
2022/03/19 12:12:42;;;;;;;;;;;23.60;31.50;;;;;;1560385;74;1244;-67
2022/03/19 12:14:44;;;;;;;;;;;23.30;31.50;;;;;;1568496;74;865;-67
2022/03/19 12:16:46;;;;;;;;;;;23.30;31.80;;;;;;1563798;74;1936;-67
2022/03/19 12:18:47;;;;;;;;;;;23.20;32.00;;;;;;1565875;74;711;-67
2022/03/19 12:20:50;;;;;;;;;;;23.10;31.70;;;;;;1563746;74;636;-67
2022/03/19 12:22:52;;;;;;;;;;;23.00;27.50;;;;;;1567829;74;1127;-67
2022/03/19 12:24:55;;;;;;;;;;;22.80;25.20;;;;;;1563105;74;725;-67
2022/03/19 12:26:57;;;;;;;;;;;22.60;28.30;;;;;;1569655;74;946;-67